createdAt,value
2022-10-18T00:02:24.887Z,101629.19
2022-10-18T00:04:51.470Z,101631.81
2022-10-18T00:07:18.106Z,101630.75
2022-10-18T00:09:44.717Z,101632.19
2022-10-18T00:12:11.415Z,101635.44
2022-10-18T00:14:38.000Z,101629.25
2022-10-18T00:17:04.669Z,101632.03
2022-10-18T00:19:31.233Z,101631.22
2022-10-18T00:21:57.905Z,101624.13
2022-10-18T00:24:24.516Z,101620.88
2022-10-18T00:26:51.157Z,101628.31
2022-10-18T00:29:17.725Z,101622.69
2022-10-18T00:31:44.709Z,101625.66
2022-10-18T00:34:14.585Z,101620.28
2022-10-18T00:36:42.527Z,101627.66
2022-10-18T00:39:14.519Z,101619.91
2022-10-18T00:41:41.155Z,101621.50
2022-10-18T00:44:27.688Z,101617.25
2022-10-18T00:47:03.516Z,101622.97
2022-10-18T00:49:34.147Z,101634.84
2022-10-18T00:52:11.036Z,101636.19
2022-10-18T00:54:41.212Z,101637.44
2022-10-18T00:57:08.855Z,101635.22
2022-10-18T00:59:36.105Z,101633.09
2022-10-18T01:02:03.988Z,101619.38
2022-10-18T01:04:30.657Z,101620.56
2022-10-18T01:07:25.360Z,101613.28
2022-10-18T01:10:03.110Z,101620.63
2022-10-18T01:12:38.710Z,101626.81
2022-10-18T01:15:36.122Z,101634.13
2022-10-18T01:18:25.096Z,101635.88
2022-10-18T01:21:16.380Z,101635.31
2022-10-18T01:24:13.972Z,101630.03
2022-10-18T01:26:59.428Z,101630.53
2022-10-18T01:29:50.915Z,101627.66
2022-10-18T01:32:23.508Z,101626.06
2022-10-18T01:34:52.845Z,101636.63
2022-10-18T01:37:21.913Z,101633.56
2022-10-18T01:39:52.289Z,101645.06
2022-10-18T01:42:21.145Z,101637.59
2022-10-18T01:44:50.604Z,101641.59
2022-10-18T01:47:19.618Z,101646.09
2022-10-18T01:49:46.577Z,101650.44
2022-10-18T01:52:14.638Z,101646.09
2022-10-18T01:54:45.204Z,101644.13
2022-10-18T01:57:21.685Z,101647.16
2022-10-18T02:00:03.624Z,101650.22
2022-10-18T02:02:41.143Z,101646.63
2022-10-18T02:05:13.839Z,101645.97
2022-10-18T02:07:55.357Z,101643.38
2022-10-18T02:10:43.644Z,101633.16
2022-10-18T02:13:16.452Z,101625.38
2022-10-18T02:15:47.315Z,101624.59
2022-10-18T02:18:22.570Z,101624.66
2022-10-18T02:20:49.840Z,101628.81
2022-10-18T02:23:19.441Z,101623.94
2022-10-18T02:25:46.123Z,101618.53
2022-10-18T02:28:13.252Z,101620.47
2022-10-18T02:30:49.026Z,101611.44
2022-10-18T02:33:23.863Z,101615.00
2022-10-18T02:35:56.993Z,101615.91
2022-10-18T02:38:25.728Z,101611.50
2022-10-18T02:40:52.522Z,101618.13
2022-10-18T02:43:19.347Z,101620.47
2022-10-18T02:45:45.980Z,101620.97
2022-10-18T02:48:12.586Z,101621.50
2022-10-18T02:50:39.187Z,101619.94
2022-10-18T02:53:06.407Z,101607.16
2022-10-18T02:55:33.212Z,101609.75
2022-10-18T02:58:00.026Z,101604.59
2022-10-18T03:00:26.608Z,101600.78
2022-10-18T03:02:53.892Z,101602.94
2022-10-18T03:09:33.919Z,101596.25
2022-10-18T03:12:00.539Z,101591.47
2022-10-18T03:14:27.159Z,101598.28
2022-10-18T03:16:53.838Z,101581.56
2022-10-18T03:19:20.455Z,101580.50
2022-10-18T03:21:47.123Z,101580.22
2022-10-18T03:24:13.737Z,101587.88
2022-10-18T03:26:40.578Z,101585.03
2022-10-18T03:29:07.649Z,101587.63
2022-10-18T03:31:34.391Z,101583.19
2022-10-18T03:34:01.001Z,101585.13
2022-10-18T03:36:27.781Z,101585.75
2022-10-18T03:38:54.402Z,101586.19
2022-10-18T03:41:21.095Z,101590.22
2022-10-18T03:43:48.044Z,101595.22
2022-10-18T03:46:14.713Z,101590.06
2022-10-18T03:48:41.315Z,101583.50
2022-10-18T03:51:07.947Z,101586.59
2022-10-18T03:53:34.551Z,101585.06
2022-10-18T03:56:01.179Z,101585.75
2022-10-18T03:58:27.834Z,101586.13
2022-10-18T04:00:55.606Z,101588.00
2022-10-18T04:03:23.203Z,101596.63
2022-10-18T04:05:50.510Z,101597.81
2022-10-18T04:08:17.899Z,101597.69
2022-10-18T04:10:44.428Z,101587.81
2022-10-18T04:13:11.164Z,101579.03
2022-10-18T04:15:37.878Z,101585.94
2022-10-18T04:18:04.536Z,101582.47
2022-10-18T04:20:31.188Z,101572.53
2022-10-18T04:22:58.203Z,101576.88
2022-10-18T04:25:25.549Z,101575.47
2022-10-18T04:27:52.371Z,101583.16
2022-10-18T04:30:19.160Z,101587.00
2022-10-18T04:32:45.712Z,101583.34
2022-10-18T04:35:12.317Z,101581.53
2022-10-18T04:37:38.967Z,101568.13
2022-10-18T04:40:06.255Z,101572.66
2022-10-18T04:42:32.811Z,101579.75
2022-10-18T04:44:59.474Z,101578.66
2022-10-18T04:47:26.026Z,101582.81
2022-10-18T04:49:52.619Z,101579.09
2022-10-18T04:52:19.332Z,101580.72
2022-10-18T04:54:45.978Z,101579.19
2022-10-18T04:57:12.567Z,101575.13
2022-10-18T04:59:39.221Z,101581.44
2022-10-18T05:02:05.775Z,101579.78
2022-10-18T05:04:32.503Z,101574.78
2022-10-18T05:06:59.136Z,101574.88
2022-10-18T05:09:25.760Z,101568.84
2022-10-18T05:11:52.328Z,101568.91
2022-10-18T05:14:19.171Z,101578.00
2022-10-18T05:16:45.872Z,101581.75
2022-10-18T05:19:12.528Z,101581.94
2022-10-18T05:21:39.156Z,101572.81
2022-10-18T05:24:06.090Z,101572.03
2022-10-18T05:26:32.651Z,101578.50
2022-10-18T05:28:59.426Z,101577.28
2022-10-18T05:31:26.093Z,101577.81
2022-10-18T05:33:52.699Z,101574.00
2022-10-18T05:36:19.330Z,101572.59
2022-10-18T05:38:47.912Z,101577.97
2022-10-18T05:41:14.820Z,101583.38
2022-10-18T05:43:41.564Z,101583.19
2022-10-18T05:46:13.628Z,101581.31
2022-10-18T05:48:43.562Z,101590.56
2022-10-18T05:51:10.294Z,101594.56
2022-10-18T05:53:38.092Z,101597.38
2022-10-18T05:56:06.143Z,101597.06
2022-10-18T05:58:33.488Z,101601.47
2022-10-18T06:01:01.537Z,101593.34
2022-10-18T06:03:30.346Z,101598.00
2022-10-18T06:06:15.835Z,101612.97
2022-10-18T06:08:43.854Z,101613.09
2022-10-18T06:11:16.992Z,101606.44
2022-10-18T06:13:45.710Z,101610.44
2022-10-18T06:16:13.712Z,101613.75
2022-10-18T06:18:40.664Z,101613.22
2022-10-18T06:21:08.083Z,101617.84
2022-10-18T06:23:35.195Z,101622.75
2022-10-18T06:26:06.754Z,101618.81
2022-10-18T06:28:37.392Z,101618.00
2022-10-18T06:31:05.892Z,101618.56
2022-10-18T06:33:33.938Z,101622.84
2022-10-18T06:36:03.223Z,101634.25
2022-10-18T06:38:30.255Z,101629.25
2022-10-18T06:40:58.067Z,101625.97
2022-10-18T06:43:25.102Z,101629.59
2022-10-18T06:45:52.861Z,101626.06
2022-10-18T06:50:57.137Z,101630.84
2022-10-18T06:53:29.343Z,101627.63
2022-10-18T06:56:05.173Z,101635.78
2022-10-18T06:58:32.383Z,101630.31
2022-10-18T07:00:59.328Z,101625.16
2022-10-18T07:03:26.376Z,101623.94
2022-10-18T07:05:52.904Z,101630.13
2022-10-18T07:08:19.536Z,101625.63
2022-10-18T07:10:52.770Z,101633.53
2022-10-18T07:13:31.908Z,101641.34
2022-10-18T07:16:19.067Z,101637.94
2022-10-18T07:18:50.488Z,101638.94
2022-10-18T07:21:20.150Z,101642.91
2022-10-18T07:23:47.407Z,101644.28
2022-10-18T07:26:15.445Z,101648.44
2022-10-18T07:28:43.627Z,101646.19
2022-10-18T07:31:11.613Z,101651.22
2022-10-18T07:33:38.649Z,101640.31
2022-10-18T07:36:07.853Z,101648.94
2022-10-18T07:38:35.496Z,101646.03
2022-10-18T07:41:04.291Z,101654.16
2022-10-18T07:43:30.963Z,101650.88
2022-10-18T07:46:00.222Z,101651.53
2022-10-18T07:48:27.607Z,101657.88
2022-10-18T07:50:54.313Z,101650.13
2022-10-18T07:53:20.876Z,101650.69
2022-10-18T07:55:47.479Z,101652.94
2022-10-18T07:58:14.068Z,101656.03
2022-10-18T08:00:40.764Z,101654.66
2022-10-18T08:03:07.359Z,101655.88
2022-10-18T08:05:34.227Z,101650.72
2022-10-18T08:08:04.250Z,101650.19
2022-10-18T08:10:35.204Z,101656.75
2022-10-18T08:13:01.793Z,101646.72
2022-10-18T08:15:28.439Z,101647.94
2022-10-18T08:17:55.066Z,101649.84
2022-10-18T08:20:30.311Z,101639.81
2022-10-18T08:23:00.368Z,101648.97
2022-10-18T08:25:27.603Z,101634.13
2022-10-18T08:27:54.219Z,101638.75
2022-10-18T08:30:21.034Z,101644.53
2022-10-18T08:32:47.644Z,101639.66
2022-10-18T08:35:14.316Z,101643.53
2022-10-18T08:37:40.960Z,101641.34
2022-10-18T08:40:08.124Z,101643.03
2022-10-18T08:42:58.024Z,101640.41
2022-10-18T08:45:40.931Z,101639.88
2022-10-18T08:48:36.067Z,101642.88
2022-10-18T08:51:06.750Z,101642.69
2022-10-18T08:53:45.430Z,101648.06
2022-10-18T08:56:21.544Z,101642.19
2022-10-18T08:58:48.460Z,101653.47
2022-10-18T09:01:18.059Z,101642.00
2022-10-18T09:04:21.624Z,101632.53
2022-10-18T09:06:52.597Z,101647.56
2022-10-18T09:09:54.644Z,101649.59
2022-10-18T09:12:57.072Z,101644.53
2022-10-18T09:15:55.528Z,101645.91
2022-10-18T09:18:29.424Z,101645.84
2022-10-18T09:21:00.988Z,101642.81
2022-10-18T09:23:30.566Z,101655.69
2022-10-18T09:26:15.074Z,101647.88
2022-10-18T09:28:50.415Z,101657.34
2022-10-18T09:31:17.095Z,101653.06
2022-10-18T09:33:56.410Z,101664.53
2022-10-18T09:36:27.755Z,101664.47
2022-10-18T09:39:00.508Z,101665.38
2022-10-18T09:41:51.793Z,101658.56
2022-10-18T09:44:25.971Z,101653.28
2022-10-18T09:47:00.152Z,101650.53
2022-10-18T09:49:31.921Z,101657.19
2022-10-18T09:52:02.096Z,101661.56
2022-10-18T09:54:40.656Z,101660.44
2022-10-18T09:57:15.319Z,101661.63
2022-10-18T09:59:49.758Z,101660.59
2022-10-18T10:02:24.371Z,101663.34
2022-10-18T10:04:54.140Z,101652.16
2022-10-18T10:07:25.235Z,101663.03
2022-10-18T10:10:04.974Z,101662.34
2022-10-18T10:12:39.947Z,101664.78
2022-10-18T10:15:13.715Z,101668.88
2022-10-18T10:17:40.473Z,101669.78
2022-10-18T10:20:20.695Z,101670.31
2022-10-18T10:22:49.744Z,101669.34
2022-10-18T10:25:24.426Z,101667.28
2022-10-18T10:27:51.499Z,101673.22
2022-10-18T10:30:30.231Z,101671.31
2022-10-18T10:32:57.203Z,101673.03
2022-10-18T10:35:53.221Z,101675.69
2022-10-18T10:38:25.926Z,101676.53
2022-10-18T10:40:53.287Z,101685.38
2022-10-18T10:43:36.986Z,101682.28
2022-10-18T10:46:12.098Z,101687.09
2022-10-18T10:49:21.007Z,101681.06
2022-10-18T10:52:02.447Z,101689.94
2022-10-18T10:54:47.559Z,101670.78
2022-10-18T10:57:29.197Z,101667.31
2022-10-18T10:59:59.775Z,101682.63
2022-10-18T11:02:34.379Z,101682.13
2022-10-18T11:05:23.942Z,101672.19
2022-10-18T11:07:55.353Z,101672.09
2022-10-18T11:10:27.212Z,101680.56
2022-10-18T11:13:05.461Z,101672.63
2022-10-18T11:15:59.377Z,101670.34
2022-10-18T11:18:33.403Z,101674.72
2022-10-18T11:21:08.631Z,101669.91
2022-10-18T11:23:38.574Z,101665.41
2022-10-18T11:26:11.113Z,101672.56
2022-10-18T11:28:46.632Z,101662.22
2022-10-18T11:31:27.486Z,101660.63
2022-10-18T11:34:10.566Z,101662.22
2022-10-18T11:37:30.004Z,101657.66
2022-10-18T11:40:15.476Z,101650.66
2022-10-18T11:43:01.437Z,101647.72
2022-10-18T11:45:28.138Z,101649.38
2022-10-18T11:48:10.007Z,101645.78
2022-10-18T11:50:59.828Z,101647.56
2022-10-18T11:53:41.398Z,101653.16
2022-10-18T11:56:28.487Z,101647.47
2022-10-18T11:59:01.122Z,101647.13
2022-10-18T12:01:30.489Z,101641.72
2022-10-18T12:04:05.655Z,101629.66
2022-10-18T12:06:38.894Z,101638.84
2022-10-18T12:09:23.975Z,101629.66
2022-10-18T12:11:57.397Z,101627.31
2022-10-18T12:14:40.366Z,101629.63
2022-10-18T12:17:43.972Z,101623.66
2022-10-18T12:20:23.286Z,101621.72
2022-10-18T12:22:59.498Z,101622.97
2022-10-18T12:25:28.739Z,101615.69
2022-10-18T12:28:01.921Z,101609.66
2022-10-18T12:30:40.914Z,101610.38
2022-10-18T12:33:27.736Z,101610.16
2022-10-18T12:36:26.596Z,101606.06
2022-10-18T12:39:00.336Z,101608.47
2022-10-18T12:41:30.095Z,101614.97
2022-10-18T12:44:05.883Z,101609.00
2022-10-18T12:46:49.355Z,101605.72
2022-10-18T12:49:23.081Z,101603.50
2022-10-18T12:51:57.129Z,101609.66
2022-10-18T12:54:40.117Z,101604.44
2022-10-18T12:57:22.206Z,101606.03
2022-10-18T12:59:48.991Z,101608.78
2022-10-18T13:02:22.413Z,101606.88
2022-10-18T13:04:49.834Z,101605.22
2022-10-18T13:07:43.409Z,101607.38
2022-10-18T13:10:10.078Z,101605.22
2022-10-18T13:12:49.255Z,101612.91
2022-10-18T13:15:49.171Z,101608.72
2022-10-18T13:18:27.604Z,101609.53
2022-10-18T13:21:17.867Z,101619.44
2022-10-18T13:24:02.736Z,101611.81
2022-10-18T13:27:24.528Z,101617.00
2022-10-18T13:29:56.420Z,101613.38
2022-10-18T13:32:55.291Z,101630.13
2022-10-18T13:35:40.760Z,101621.84
2022-10-18T13:38:25.236Z,101622.56
2022-10-18T13:41:07.376Z,101625.06
2022-10-18T13:43:52.841Z,101623.84
2022-10-18T13:46:20.909Z,101631.09
2022-10-18T13:48:51.640Z,101627.72
2022-10-18T13:52:00.042Z,101631.41
2022-10-18T13:54:38.712Z,101636.00
2022-10-18T13:57:29.824Z,101623.88
2022-10-18T14:00:33.795Z,101637.06
2022-10-18T14:03:56.446Z,101635.03
2022-10-18T14:06:24.456Z,101627.09
2022-10-18T14:09:09.447Z,101627.19
2022-10-18T14:12:11.509Z,101642.72
2022-10-18T14:14:45.365Z,101633.06
2022-10-18T14:17:42.995Z,101642.22
2022-10-18T14:20:27.329Z,101648.28
2022-10-18T14:23:20.548Z,101642.53
2022-10-18T14:25:48.112Z,101663.97
2022-10-18T14:28:21.630Z,101657.66
2022-10-18T14:30:58.935Z,101655.88
2022-10-18T14:33:57.251Z,101661.03
2022-10-18T14:36:27.798Z,101657.84
2022-10-18T14:38:58.892Z,101669.41
2022-10-18T14:41:27.943Z,101660.34
2022-10-18T14:44:11.818Z,101660.53
2022-10-18T14:46:46.517Z,101660.16
2022-10-18T14:49:15.335Z,101656.50
2022-10-18T14:51:44.100Z,101670.28
2022-10-18T14:54:22.303Z,101672.97
2022-10-18T14:56:50.837Z,101669.75
2022-10-18T14:59:24.564Z,101672.09
2022-10-18T15:01:54.567Z,101672.31
2022-10-18T15:04:26.333Z,101671.00
2022-10-18T15:06:55.924Z,101674.69
2022-10-18T15:09:24.101Z,101673.09
2022-10-18T15:11:51.835Z,101676.22
2022-10-18T15:14:20.464Z,101683.63
2022-10-18T15:16:48.888Z,101682.94
2022-10-18T15:19:15.397Z,101686.19
2022-10-18T15:22:19.859Z,101687.28
2022-10-18T15:24:43.867Z,101679.13
2022-10-18T15:27:24.017Z,101677.22
2022-10-18T15:29:50.804Z,101678.59
2022-10-18T15:32:30.882Z,101675.31
2022-10-18T15:35:10.045Z,101679.59
2022-10-18T15:37:45.272Z,101673.78
2022-10-18T15:40:18.544Z,101672.81
2022-10-18T15:42:45.540Z,101666.13
2022-10-18T15:45:24.169Z,101671.44
2022-10-18T15:48:06.020Z,101675.25
2022-10-18T15:50:40.988Z,101673.75
2022-10-18T15:53:23.669Z,101675.09
2022-10-18T15:55:57.300Z,101673.06
2022-10-18T15:58:28.899Z,101669.16
2022-10-18T16:00:59.301Z,101669.94
2022-10-18T16:03:26.954Z,101673.97
2022-10-18T16:06:00.565Z,101672.75
2022-10-18T16:08:30.673Z,101670.22
2022-10-18T16:10:58.907Z,101675.84
2022-10-18T16:13:26.743Z,101671.41
2022-10-18T16:15:55.762Z,101670.31
2022-10-18T16:18:23.920Z,101677.84
2022-10-18T16:20:50.563Z,101677.72
2022-10-18T16:23:21.679Z,101676.88
2022-10-18T16:25:48.413Z,101681.22
2022-10-18T16:28:18.131Z,101693.28
2022-10-18T16:30:52.633Z,101688.78
2022-10-18T16:33:21.542Z,101685.38
2022-10-18T16:35:48.910Z,101691.59
2022-10-18T16:38:24.670Z,101697.59
2022-10-18T16:40:51.535Z,101700.06
2022-10-18T16:43:18.308Z,101699.94
2022-10-18T16:45:45.527Z,101701.38
2022-10-18T16:48:20.460Z,101706.13
2022-10-18T16:50:47.876Z,101717.81
2022-10-18T16:53:14.983Z,101712.22
2022-10-18T16:55:42.886Z,101718.47
2022-10-18T16:58:18.037Z,101722.66
2022-10-18T17:00:46.910Z,101725.03
2022-10-18T17:03:13.943Z,101732.88
2022-10-18T17:05:41.630Z,101728.88
2022-10-18T17:08:18.829Z,101725.94
2022-10-18T17:10:46.283Z,101734.09
2022-10-18T17:13:12.855Z,101734.72
2022-10-18T17:15:42.404Z,101730.31
2022-10-18T17:18:15.045Z,101736.69
2022-10-18T17:20:42.250Z,101743.16
2022-10-18T17:23:09.415Z,101745.88
2022-10-18T17:25:52.667Z,101749.97
2022-10-18T17:28:30.591Z,101753.81
2022-10-18T17:30:57.230Z,101752.13
2022-10-18T17:33:23.824Z,101758.63
2022-10-18T17:35:50.400Z,101760.00
2022-10-18T17:38:17.059Z,101758.75
2022-10-18T17:40:43.691Z,101766.84
2022-10-18T17:43:10.470Z,101763.47
2022-10-18T17:45:37.063Z,101777.81
2022-10-18T17:48:03.864Z,101779.59
2022-10-18T17:50:30.423Z,101790.56
2022-10-18T17:52:57.432Z,101785.88
2022-10-18T17:55:24.012Z,101781.84
2022-10-18T17:57:51.567Z,101786.97
2022-10-18T18:00:18.091Z,101790.09
2022-10-18T18:02:44.862Z,101797.97
2022-10-18T18:05:12.637Z,101792.06
2022-10-18T18:07:39.309Z,101800.50
2022-10-18T18:10:06.353Z,101803.97
2022-10-18T18:12:33.185Z,101801.94
2022-10-18T18:15:00.023Z,101809.06
2022-10-18T18:17:34.069Z,101813.88
2022-10-18T18:20:01.289Z,101821.88
2022-10-18T18:22:27.843Z,101821.19
2022-10-18T18:24:54.483Z,101821.09
2022-10-18T18:27:21.097Z,101815.63
2022-10-18T18:29:48.328Z,101822.16
2022-10-18T18:32:14.913Z,101815.63
2022-10-18T18:34:42.628Z,101815.53
2022-10-18T18:37:09.610Z,101809.06
2022-10-18T18:39:38.836Z,101806.69
2022-10-18T18:42:06.213Z,101796.78
2022-10-18T18:44:33.985Z,101798.16
2022-10-18T18:47:01.721Z,101797.97
2022-10-18T18:49:28.500Z,101805.22
2022-10-18T18:51:55.100Z,101803.47
2022-10-18T18:54:22.146Z,101795.63
2022-10-18T18:56:48.753Z,101809.09
2022-10-18T18:59:16.105Z,101797.41
2022-10-18T19:01:43.906Z,101794.09
2022-10-18T19:04:10.926Z,101780.94
2022-10-18T19:06:42.689Z,101789.53
2022-10-18T19:09:23.021Z,101788.28
2022-10-18T19:11:52.524Z,101788.78
2022-10-18T19:14:19.323Z,101797.16
2022-10-18T19:16:50.907Z,101799.44
2022-10-18T19:19:25.548Z,101804.81
2022-10-18T19:21:57.019Z,101799.00
2022-10-18T19:24:25.722Z,101799.41
2022-10-18T19:26:58.246Z,101803.06
2022-10-18T19:29:30.199Z,101803.13
2022-10-18T19:31:58.802Z,101805.19
2022-10-18T19:34:27.485Z,101806.91
2022-10-18T19:36:54.815Z,101812.44
2022-10-18T19:39:29.325Z,101809.91
2022-10-18T19:41:58.540Z,101805.38
2022-10-18T19:44:28.484Z,101811.81
2022-10-18T19:46:55.550Z,101805.94
2022-10-18T19:49:22.311Z,101807.13
2022-10-18T19:51:49.200Z,101818.84
2022-10-18T19:54:16.496Z,101815.25
2022-10-18T19:56:43.926Z,101823.19
2022-10-18T19:59:11.816Z,101822.25
2022-10-18T20:01:38.861Z,101834.13
2022-10-18T20:04:07.356Z,101829.31
2022-10-18T20:06:35.142Z,101823.53
2022-10-18T20:09:02.947Z,101820.06
2022-10-18T20:11:30.455Z,101829.88
2022-10-18T20:13:57.700Z,101837.88
2022-10-18T20:16:28.695Z,101839.50
2022-10-18T20:19:00.382Z,101846.03
2022-10-18T20:21:28.515Z,101843.53
2022-10-18T20:23:55.764Z,101845.91
2022-10-18T20:26:23.384Z,101852.34
2022-10-18T20:28:57.169Z,101843.09
2022-10-18T20:31:34.529Z,101845.19
2022-10-18T20:34:04.396Z,101847.50
2022-10-18T20:36:32.399Z,101853.06
2022-10-18T20:39:00.099Z,101858.94
2022-10-18T20:41:32.037Z,101863.25
2022-10-18T20:44:01.614Z,101854.91
2022-10-18T20:46:33.828Z,101852.50
2022-10-18T20:49:00.574Z,101857.25
2022-10-18T20:51:27.552Z,101848.84
2022-10-18T20:53:54.398Z,101839.84
2022-10-18T20:56:23.988Z,101840.91
2022-10-18T20:58:52.075Z,101830.16
2022-10-18T21:01:18.670Z,101828.47
2022-10-18T21:03:47.414Z,101832.91
2022-10-18T21:06:19.779Z,101832.81
2022-10-18T21:08:46.741Z,101827.59
2022-10-18T21:11:14.297Z,101825.38
2022-10-18T21:13:40.983Z,101840.44
2022-10-18T21:16:07.790Z,101836.03
2022-10-18T21:18:36.352Z,101844.03
2022-10-18T21:21:14.862Z,101842.88
2022-10-18T21:23:41.747Z,101841.72
2022-10-18T21:26:13.565Z,101841.59
2022-10-18T21:28:40.678Z,101835.91
2022-10-18T21:31:12.874Z,101844.16
2022-10-18T21:33:40.818Z,101842.63
2022-10-18T21:36:08.010Z,101836.53
2022-10-18T21:38:34.934Z,101835.63
2022-10-18T21:41:01.925Z,101834.03
2022-10-18T21:43:28.600Z,101840.47
2022-10-18T21:46:02.021Z,101836.94
2022-10-18T21:48:28.657Z,101839.41
2022-10-18T21:50:55.238Z,101841.50
2022-10-18T21:53:22.005Z,101838.88
2022-10-18T21:55:49.102Z,101826.53
2022-10-18T21:58:15.700Z,101831.06
2022-10-18T22:00:42.361Z,101825.34
2022-10-18T22:03:10.782Z,101829.69
2022-10-18T22:05:37.560Z,101834.50
2022-10-18T22:08:05.009Z,101834.53
2022-10-18T22:10:32.097Z,101830.84
2022-10-18T22:12:58.951Z,101832.75
2022-10-18T22:15:25.843Z,101827.00
2022-10-18T22:17:52.504Z,101835.91
2022-10-18T22:20:19.093Z,101829.84
2022-10-18T22:22:45.800Z,101829.09
2022-10-18T22:25:12.355Z,101828.97
2022-10-18T22:27:39.068Z,101816.56
2022-10-18T22:30:06.339Z,101829.91
2022-10-18T22:32:32.963Z,101828.19
2022-10-18T22:34:59.513Z,101819.03
2022-10-18T22:37:26.175Z,101820.66
2022-10-18T22:39:52.764Z,101829.19
2022-10-18T22:42:19.363Z,101814.41
2022-10-18T22:44:45.948Z,101817.06
2022-10-18T22:47:12.564Z,101819.25
2022-10-18T22:49:39.109Z,101812.09
2022-10-18T22:52:05.869Z,101814.06
2022-10-18T22:54:32.427Z,101811.03
2022-10-18T22:56:59.088Z,101818.91
2022-10-18T22:59:25.684Z,101809.22
2022-10-18T23:01:52.333Z,101812.56
2022-10-18T23:04:18.903Z,101811.75
2022-10-18T23:06:45.630Z,101813.50
2022-10-18T23:09:12.245Z,101808.88
2022-10-18T23:11:38.923Z,101814.63
2022-10-18T23:14:07.141Z,101804.34
2022-10-18T23:16:34.000Z,101799.94
2022-10-18T23:19:00.841Z,101810.91
2022-10-18T23:21:28.299Z,101804.09
2022-10-18T23:23:56.422Z,101805.09
2022-10-18T23:26:25.633Z,101805.84
2022-10-18T23:28:53.295Z,101812.72
2022-10-18T23:31:24.251Z,101809.75
2022-10-18T23:33:53.986Z,101819.94
2022-10-18T23:36:21.887Z,101813.88
2022-10-18T23:38:48.751Z,101813.22
2022-10-18T23:41:17.010Z,101819.84
2022-10-18T23:43:44.678Z,101803.41
2022-10-18T23:46:12.913Z,101812.78
2022-10-18T23:48:39.737Z,101808.44
2022-10-18T23:51:06.615Z,101802.53
2022-10-18T23:53:33.763Z,101806.53
2022-10-18T23:56:15.740Z,101805.56
2022-10-18T23:58:43.934Z,101799.84
